sensor_id;sensor_type;location;lat;lon;timestamp;temperature;humidity
25440;DHT22;13365;52.208;5.488;2023-02-22T00:00:49;13.00;99.20
25440;DHT22;13365;52.208;5.488;2023-02-22T00:03:16;13.00;99.20
25440;DHT22;13365;52.208;5.488;2023-02-22T00:05:43;13.10;99.10
25440;DHT22;13365;52.208;5.488;2023-02-22T00:08:12;13.30;98.90
25440;DHT22;13365;52.208;5.488;2023-02-22T00:10:38;13.30;98.80
25440;DHT22;13365;52.208;5.488;2023-02-22T00:13:06;13.30;98.60
25440;DHT22;13365;52.208;5.488;2023-02-22T00:15:32;13.40;98.70
25440;DHT22;13365;52.208;5.488;2023-02-22T00:17:58;13.30;98.50
25440;DHT22;13365;52.208;5.488;2023-02-22T00:20:23;13.20;98.60
25440;DHT22;13365;52.208;5.488;2023-02-22T00:22:49;13.00;98.80
25440;DHT22;13365;52.208;5.488;2023-02-22T00:25:18;12.80;98.90
25440;DHT22;13365;52.208;5.488;2023-02-22T00:27:45;12.90;99.00
25440;DHT22;13365;52.208;5.488;2023-02-22T00:30:18;12.90;99.00
25440;DHT22;13365;52.208;5.488;2023-02-22T00:32:45;12.80;99.10
25440;DHT22;13365;52.208;5.488;2023-02-22T00:35:16;12.90;99.40
25440;DHT22;13365;52.208;5.488;2023-02-22T00:37:42;13.10;99.20
25440;DHT22;13365;52.208;5.488;2023-02-22T00:40:10;13.20;98.80
25440;DHT22;13365;52.208;5.488;2023-02-22T00:42:36;13.30;98.70
25440;DHT22;13365;52.208;5.488;2023-02-22T00:45:01;13.50;98.70
25440;DHT22;13365;52.208;5.488;2023-02-22T00:47:28;13.60;98.50
25440;DHT22;13365;52.208;5.488;2023-02-22T00:49:54;13.70;98.30
25440;DHT22;13365;52.208;5.488;2023-02-22T00:52:20;13.70;98.00
25440;DHT22;13365;52.208;5.488;2023-02-22T00:54:46;13.50;98.00
25440;DHT22;13365;52.208;5.488;2023-02-22T00:57:11;13.50;98.20
25440;DHT22;13365;52.208;5.488;2023-02-22T00:59:37;13.40;98.00
25440;DHT22;13365;52.208;5.488;2023-02-22T01:02:03;13.40;98.30
25440;DHT22;13365;52.208;5.488;2023-02-22T01:04:29;13.30;98.40
25440;DHT22;13365;52.208;5.488;2023-02-22T01:06:54;13.10;98.20
25440;DHT22;13365;52.208;5.488;2023-02-22T01:09:20;13.10;98.50
25440;DHT22;13365;52.208;5.488;2023-02-22T01:11:47;13.00;98.80
25440;DHT22;13365;52.208;5.488;2023-02-22T01:14:13;13.20;98.80
25440;DHT22;13365;52.208;5.488;2023-02-22T01:16:38;12.90;98.80
25440;DHT22;13365;52.208;5.488;2023-02-22T01:19:04;12.80;98.90
25440;DHT22;13365;52.208;5.488;2023-02-22T01:21:31;12.90;99.10
25440;DHT22;13365;52.208;5.488;2023-02-22T01:23:56;13.10;99.10
25440;DHT22;13365;52.208;5.488;2023-02-22T01:26:22;13.20;99.10
25440;DHT22;13365;52.208;5.488;2023-02-22T01:28:47;13.30;98.80
25440;DHT22;13365;52.208;5.488;2023-02-22T01:31:13;13.30;98.80
25440;DHT22;13365;52.208;5.488;2023-02-22T01:33:39;13.30;98.70
25440;DHT22;13365;52.208;5.488;2023-02-22T01:36:05;13.30;98.60
25440;DHT22;13365;52.208;5.488;2023-02-22T01:38:36;13.40;98.70
25440;DHT22;13365;52.208;5.488;2023-02-22T01:41:03;13.40;98.40
25440;DHT22;13365;52.208;5.488;2023-02-22T01:43:31;13.40;98.10
25440;DHT22;13365;52.208;5.488;2023-02-22T01:48:50;13.20;98.60
25440;DHT22;13365;52.208;5.488;2023-02-22T01:51:20;13.20;98.50
25440;DHT22;13365;52.208;5.488;2023-02-22T01:53:58;13.30;98.30
25440;DHT22;13365;52.208;5.488;2023-02-22T01:56:27;13.20;98.40
25440;DHT22;13365;52.208;5.488;2023-02-22T01:59:12;13.00;98.60
25440;DHT22;13365;52.208;5.488;2023-02-22T02:01:40;13.10;98.70
25440;DHT22;13365;52.208;5.488;2023-02-22T02:04:12;13.10;98.60
25440;DHT22;13365;52.208;5.488;2023-02-22T02:06:39;13.10;98.70
25440;DHT22;13365;52.208;5.488;2023-02-22T02:09:22;13.00;98.70
25440;DHT22;13365;52.208;5.488;2023-02-22T02:11:49;13.00;98.70
25440;DHT22;13365;52.208;5.488;2023-02-22T02:14:15;12.80;98.60
25440;DHT22;13365;52.208;5.488;2023-02-22T02:16:46;12.60;99.20
25440;DHT22;13365;52.208;5.488;2023-02-22T02:33:36;12.70;98.60
25440;DHT22;13365;52.208;5.488;2023-02-22T02:36:35;12.70;98.50
25440;DHT22;13365;52.208;5.488;2023-02-22T02:41:48;12.60;98.70
25440;DHT22;13365;52.208;5.488;2023-02-22T02:44:36;12.60;98.90
25440;DHT22;13365;52.208;5.488;2023-02-22T02:47:08;12.60;98.50
25440;DHT22;13365;52.208;5.488;2023-02-22T02:52:09;12.40;98.40
25440;DHT22;13365;52.208;5.488;2023-02-22T02:54:37;12.40;98.80
25440;DHT22;13365;52.208;5.488;2023-02-22T02:57:04;12.60;98.60
25440;DHT22;13365;52.208;5.488;2023-02-22T02:59:33;12.60;98.40
25440;DHT22;13365;52.208;5.488;2023-02-22T03:04:40;12.60;98.00
25440;DHT22;13365;52.208;5.488;2023-02-22T03:18:51;12.30;98.20
25440;DHT22;13365;52.208;5.488;2023-02-22T03:24:05;12.10;99.00
25440;DHT22;13365;52.208;5.488;2023-02-22T03:26:42;12.20;98.60
25440;DHT22;13365;52.208;5.488;2023-02-22T03:29:11;12.30;98.40
25440;DHT22;13365;52.208;5.488;2023-02-22T03:31:40;12.20;98.20
25440;DHT22;13365;52.208;5.488;2023-02-22T03:34:18;11.90;98.20
25440;DHT22;13365;52.208;5.488;2023-02-22T03:36:49;11.90;98.40
25440;DHT22;13365;52.208;5.488;2023-02-22T03:39:18;11.90;98.60
25440;DHT22;13365;52.208;5.488;2023-02-22T03:41:47;11.90;98.20
25440;DHT22;13365;52.208;5.488;2023-02-22T03:44:17;12.00;98.00
25440;DHT22;13365;52.208;5.488;2023-02-22T03:46:47;12.00;97.70
25440;DHT22;13365;52.208;5.488;2023-02-22T03:49:32;12.00;97.90
25440;DHT22;13365;52.208;5.488;2023-02-22T03:51:59;12.00;97.90
25440;DHT22;13365;52.208;5.488;2023-02-22T03:54:25;12.00;97.80
25440;DHT22;13365;52.208;5.488;2023-02-22T03:56:57;11.90;97.60
25440;DHT22;13365;52.208;5.488;2023-02-22T03:59:24;11.80;97.80
25440;DHT22;13365;52.208;5.488;2023-02-22T04:01:53;11.70;98.10
25440;DHT22;13365;52.208;5.488;2023-02-22T04:04:18;11.90;98.00
25440;DHT22;13365;52.208;5.488;2023-02-22T04:06:46;11.80;98.00
25440;DHT22;13365;52.208;5.488;2023-02-22T04:09:13;11.70;98.10
25440;DHT22;13365;52.208;5.488;2023-02-22T04:11:38;11.70;98.20
25440;DHT22;13365;52.208;5.488;2023-02-22T04:14:04;11.50;98.10
25440;DHT22;13365;52.208;5.488;2023-02-22T04:16:29;11.50;98.60
25440;DHT22;13365;52.208;5.488;2023-02-22T04:18:55;11.50;98.60
25440;DHT22;13365;52.208;5.488;2023-02-22T04:21:21;11.40;98.70
25440;DHT22;13365;52.208;5.488;2023-02-22T04:23:46;11.40;98.70
25440;DHT22;13365;52.208;5.488;2023-02-22T04:26:12;11.40;98.80
25440;DHT22;13365;52.208;5.488;2023-02-22T04:28:38;11.40;98.80
25440;DHT22;13365;52.208;5.488;2023-02-22T04:31:03;11.50;99.10
25440;DHT22;13365;52.208;5.488;2023-02-22T04:33:29;11.60;98.80
25440;DHT22;13365;52.208;5.488;2023-02-22T04:35:54;11.70;98.50
25440;DHT22;13365;52.208;5.488;2023-02-22T04:38:22;11.60;98.70
25440;DHT22;13365;52.208;5.488;2023-02-22T04:40:50;11.60;98.40
25440;DHT22;13365;52.208;5.488;2023-02-22T04:43:16;11.50;98.70
25440;DHT22;13365;52.208;5.488;2023-02-22T04:45:42;11.50;98.70
25440;DHT22;13365;52.208;5.488;2023-02-22T04:48:08;11.50;98.80
25440;DHT22;13365;52.208;5.488;2023-02-22T04:50:33;11.60;98.70
25440;DHT22;13365;52.208;5.488;2023-02-22T04:53:00;11.50;98.70
25440;DHT22;13365;52.208;5.488;2023-02-22T04:55:26;11.50;98.80
25440;DHT22;13365;52.208;5.488;2023-02-22T04:57:52;11.60;98.90
25440;DHT22;13365;52.208;5.488;2023-02-22T05:00:19;11.60;98.70
25440;DHT22;13365;52.208;5.488;2023-02-22T05:02:48;11.40;98.90
25440;DHT22;13365;52.208;5.488;2023-02-22T05:05:18;11.40;99.00
25440;DHT22;13365;52.208;5.488;2023-02-22T05:07:46;11.40;99.20
25440;DHT22;13365;52.208;5.488;2023-02-22T05:10:12;11.40;99.20
25440;DHT22;13365;52.208;5.488;2023-02-22T05:12:38;11.40;99.20
25440;DHT22;13365;52.208;5.488;2023-02-22T05:15:06;11.40;99.20
25440;DHT22;13365;52.208;5.488;2023-02-22T05:17:33;11.40;99.40
25440;DHT22;13365;52.208;5.488;2023-02-22T05:19:59;11.30;99.40
25440;DHT22;13365;52.208;5.488;2023-02-22T05:22:24;11.40;99.60
25440;DHT22;13365;52.208;5.488;2023-02-22T05:24:50;11.40;99.50
25440;DHT22;13365;52.208;5.488;2023-02-22T05:27:18;11.50;99.60
25440;DHT22;13365;52.208;5.488;2023-02-22T05:29:44;11.60;99.50
25440;DHT22;13365;52.208;5.488;2023-02-22T05:32:10;11.50;99.20
25440;DHT22;13365;52.208;5.488;2023-02-22T05:34:38;11.50;99.40
25440;DHT22;13365;52.208;5.488;2023-02-22T05:37:04;11.50;99.50
25440;DHT22;13365;52.208;5.488;2023-02-22T05:39:30;11.60;99.50
25440;DHT22;13365;52.208;5.488;2023-02-22T05:41:55;11.70;99.30
25440;DHT22;13365;52.208;5.488;2023-02-22T05:44:21;11.70;99.20
25440;DHT22;13365;52.208;5.488;2023-02-22T05:46:47;11.60;99.20
25440;DHT22;13365;52.208;5.488;2023-02-22T05:49:12;11.70;99.20
25440;DHT22;13365;52.208;5.488;2023-02-22T05:51:38;11.60;99.10
25440;DHT22;13365;52.208;5.488;2023-02-22T05:54:03;11.60;99.60
25440;DHT22;13365;52.208;5.488;2023-02-22T05:56:29;11.60;99.40
25440;DHT22;13365;52.208;5.488;2023-02-22T05:58:55;11.60;99.60
25440;DHT22;13365;52.208;5.488;2023-02-22T06:01:21;11.40;99.50
25440;DHT22;13365;52.208;5.488;2023-02-22T06:03:50;11.30;99.90
25440;DHT22;13365;52.208;5.488;2023-02-22T06:06:17;11.40;99.90
25440;DHT22;13365;52.208;5.488;2023-02-22T06:08:44;11.40;99.90
25440;DHT22;13365;52.208;5.488;2023-02-22T06:11:10;11.40;99.90
25440;DHT22;13365;52.208;5.488;2023-02-22T06:13:36;11.40;99.90
25440;DHT22;13365;52.208;5.488;2023-02-22T06:16:02;11.30;99.90
25440;DHT22;13365;52.208;5.488;2023-02-22T06:18:28;11.40;99.90
25440;DHT22;13365;52.208;5.488;2023-02-22T06:20:56;11.50;99.90
25440;DHT22;13365;52.208;5.488;2023-02-22T06:23:22;11.60;99.70
25440;DHT22;13365;52.208;5.488;2023-02-22T06:25:47;11.50;99.60
25440;DHT22;13365;52.208;5.488;2023-02-22T06:28:13;11.50;99.60
25440;DHT22;13365;52.208;5.488;2023-02-22T06:30:40;11.40;99.80
25440;DHT22;13365;52.208;5.488;2023-02-22T06:33:07;11.50;99.90
25440;DHT22;13365;52.208;5.488;2023-02-22T06:35:33;11.40;99.80
25440;DHT22;13365;52.208;5.488;2023-02-22T06:37:58;11.50;99.90
25440;DHT22;13365;52.208;5.488;2023-02-22T06:40:24;11.60;99.80
25440;DHT22;13365;52.208;5.488;2023-02-22T06:42:53;11.60;99.90
25440;DHT22;13365;52.208;5.488;2023-02-22T06:45:19;11.50;99.90
25440;DHT22;13365;52.208;5.488;2023-02-22T06:47:45;11.30;99.90
25440;DHT22;13365;52.208;5.488;2023-02-22T06:50:19;11.20;99.90
25440;DHT22;13365;52.208;5.488;2023-02-22T06:52:45;11.20;99.90
25440;DHT22;13365;52.208;5.488;2023-02-22T06:55:22;11.00;99.90
25440;DHT22;13365;52.208;5.488;2023-02-22T06:57:48;10.90;99.90
25440;DHT22;13365;52.208;5.488;2023-02-22T07:00:16;11.20;99.90
25440;DHT22;13365;52.208;5.488;2023-02-22T07:02:43;11.40;99.90
25440;DHT22;13365;52.208;5.488;2023-02-22T07:05:10;11.60;99.90
25440;DHT22;13365;52.208;5.488;2023-02-22T07:07:37;11.60;99.90
25440;DHT22;13365;52.208;5.488;2023-02-22T07:10:04;11.70;99.90
25440;DHT22;13365;52.208;5.488;2023-02-22T07:12:30;11.70;99.90
25440;DHT22;13365;52.208;5.488;2023-02-22T07:14:55;11.70;99.90
25440;DHT22;13365;52.208;5.488;2023-02-22T07:17:21;11.70;99.90
25440;DHT22;13365;52.208;5.488;2023-02-22T07:19:46;11.80;99.90
25440;DHT22;13365;52.208;5.488;2023-02-22T07:22:12;11.70;99.90
25440;DHT22;13365;52.208;5.488;2023-02-22T07:24:37;11.60;99.90
25440;DHT22;13365;52.208;5.488;2023-02-22T07:27:05;11.70;99.90
25440;DHT22;13365;52.208;5.488;2023-02-22T07:29:30;11.70;99.90
25440;DHT22;13365;52.208;5.488;2023-02-22T07:31:56;11.60;99.90
25440;DHT22;13365;52.208;5.488;2023-02-22T07:34:22;11.70;99.90
25440;DHT22;13365;52.208;5.488;2023-02-22T07:36:47;11.70;99.90
25440;DHT22;13365;52.208;5.488;2023-02-22T07:39:13;11.90;99.90
25440;DHT22;13365;52.208;5.488;2023-02-22T07:41:39;11.80;99.90
25440;DHT22;13365;52.208;5.488;2023-02-22T07:44:04;11.80;99.90
25440;DHT22;13365;52.208;5.488;2023-02-22T07:46:30;11.80;99.90
25440;DHT22;13365;52.208;5.488;2023-02-22T07:48:55;11.70;99.90
25440;DHT22;13365;52.208;5.488;2023-02-22T07:51:21;11.50;99.90
25440;DHT22;13365;52.208;5.488;2023-02-22T07:53:47;11.60;99.90
25440;DHT22;13365;52.208;5.488;2023-02-22T07:56:12;11.50;99.90
25440;DHT22;13365;52.208;5.488;2023-02-22T07:58:38;11.40;99.90
25440;DHT22;13365;52.208;5.488;2023-02-22T08:01:03;11.40;99.90
25440;DHT22;13365;52.208;5.488;2023-02-22T08:03:33;11.40;99.90
25440;DHT22;13365;52.208;5.488;2023-02-22T08:06:01;11.60;99.90
25440;DHT22;13365;52.208;5.488;2023-02-22T08:08:27;11.70;99.90
25440;DHT22;13365;52.208;5.488;2023-02-22T08:10:55;11.70;99.90
25440;DHT22;13365;52.208;5.488;2023-02-22T08:13:21;11.80;99.90
25440;DHT22;13365;52.208;5.488;2023-02-22T08:15:50;11.80;99.90
25440;DHT22;13365;52.208;5.488;2023-02-22T08:18:17;11.80;99.90
25440;DHT22;13365;52.208;5.488;2023-02-22T08:20:44;11.70;99.90
25440;DHT22;13365;52.208;5.488;2023-02-22T08:23:12;11.70;99.90
25440;DHT22;13365;52.208;5.488;2023-02-22T08:25:38;11.80;99.90
25440;DHT22;13365;52.208;5.488;2023-02-22T08:28:09;11.80;99.90
25440;DHT22;13365;52.208;5.488;2023-02-22T08:30:36;11.80;99.90
25440;DHT22;13365;52.208;5.488;2023-02-22T08:33:03;11.80;99.90
25440;DHT22;13365;52.208;5.488;2023-02-22T08:35:30;11.90;99.90
25440;DHT22;13365;52.208;5.488;2023-02-22T08:38:05;11.90;99.90
25440;DHT22;13365;52.208;5.488;2023-02-22T08:40:34;11.90;99.90
25440;DHT22;13365;52.208;5.488;2023-02-22T08:43:00;11.80;99.90
25440;DHT22;13365;52.208;5.488;2023-02-22T08:45:26;11.90;99.90
25440;DHT22;13365;52.208;5.488;2023-02-22T08:47:53;12.00;99.90
25440;DHT22;13365;52.208;5.488;2023-02-22T08:50:27;12.00;99.90
25440;DHT22;13365;52.208;5.488;2023-02-22T08:52:55;12.10;99.90
25440;DHT22;13365;52.208;5.488;2023-02-22T08:55:25;12.30;99.90
25440;DHT22;13365;52.208;5.488;2023-02-22T08:57:50;12.30;99.90
25440;DHT22;13365;52.208;5.488;2023-02-22T09:00:18;12.30;99.90
25440;DHT22;13365;52.208;5.488;2023-02-22T09:02:43;12.30;99.90
25440;DHT22;13365;52.208;5.488;2023-02-22T09:05:09;12.30;99.90
25440;DHT22;13365;52.208;5.488;2023-02-22T09:07:35;12.10;99.90
25440;DHT22;13365;52.208;5.488;2023-02-22T09:10:00;11.90;99.90
25440;DHT22;13365;52.208;5.488;2023-02-22T09:12:26;12.00;99.90
25440;DHT22;13365;52.208;5.488;2023-02-22T09:14:51;12.10;99.90
25440;DHT22;13365;52.208;5.488;2023-02-22T09:17:17;12.10;99.90
25440;DHT22;13365;52.208;5.488;2023-02-22T09:19:43;12.30;99.90
25440;DHT22;13365;52.208;5.488;2023-02-22T09:22:10;12.20;99.90
25440;DHT22;13365;52.208;5.488;2023-02-22T09:24:35;12.30;99.90
25440;DHT22;13365;52.208;5.488;2023-02-22T09:27:01;12.40;99.90
25440;DHT22;13365;52.208;5.488;2023-02-22T09:29:29;12.60;99.90
25440;DHT22;13365;52.208;5.488;2023-02-22T09:31:55;12.60;99.90
25440;DHT22;13365;52.208;5.488;2023-02-22T09:34:23;12.80;99.90
25440;DHT22;13365;52.208;5.488;2023-02-22T09:36:54;13.00;99.90
25440;DHT22;13365;52.208;5.488;2023-02-22T09:39:21;13.10;99.90
25440;DHT22;13365;52.208;5.488;2023-02-22T09:44:35;13.50;99.40
25440;DHT22;13365;52.208;5.488;2023-02-22T09:47:06;13.60;99.10
25440;DHT22;13365;52.208;5.488;2023-02-22T09:49:42;13.60;98.80
25440;DHT22;13365;52.208;5.488;2023-02-22T09:52:29;13.70;98.90
25440;DHT22;13365;52.208;5.488;2023-02-22T09:55:19;13.80;98.70
25440;DHT22;13365;52.208;5.488;2023-02-22T09:57:50;13.60;98.60
25440;DHT22;13365;52.208;5.488;2023-02-22T10:00:22;13.70;99.50
25440;DHT22;13365;52.208;5.488;2023-02-22T10:05:21;14.00;98.70
25440;DHT22;13365;52.208;5.488;2023-02-22T10:07:58;14.10;98.50
25440;DHT22;13365;52.208;5.488;2023-02-22T10:10:27;14.00;98.60
25440;DHT22;13365;52.208;5.488;2023-02-22T10:13:13;14.20;98.80
25440;DHT22;13365;52.208;5.488;2023-02-22T10:18:28;14.50;98.50
25440;DHT22;13365;52.208;5.488;2023-02-22T10:21:17;14.70;98.20
25440;DHT22;13365;52.208;5.488;2023-02-22T10:26:36;14.90;97.10
25440;DHT22;13365;52.208;5.488;2023-02-22T10:32:01;14.80;97.80
25440;DHT22;13365;52.208;5.488;2023-02-22T10:34:32;15.10;98.00
25440;DHT22;13365;52.208;5.488;2023-02-22T10:37:24;15.20;97.30
25440;DHT22;13365;52.208;5.488;2023-02-22T10:42:38;15.50;96.60
25440;DHT22;13365;52.208;5.488;2023-02-22T10:45:05;15.60;96.10
25440;DHT22;13365;52.208;5.488;2023-02-22T10:47:38;15.70;96.50
25440;DHT22;13365;52.208;5.488;2023-02-22T10:50:04;15.80;95.80
25440;DHT22;13365;52.208;5.488;2023-02-22T10:52:32;15.90;95.20
25440;DHT22;13365;52.208;5.488;2023-02-22T10:55:02;15.90;95.50
25440;DHT22;13365;52.208;5.488;2023-02-22T10:57:34;16.00;95.50
25440;DHT22;13365;52.208;5.488;2023-02-22T11:00:14;15.80;95.40
25440;DHT22;13365;52.208;5.488;2023-02-22T11:02:52;15.80;95.50
25440;DHT22;13365;52.208;5.488;2023-02-22T11:08:14;15.80;95.60
25440;DHT22;13365;52.208;5.488;2023-02-22T11:10:39;15.90;95.20
25440;DHT22;13365;52.208;5.488;2023-02-22T11:13:31;15.90;94.60
25440;DHT22;13365;52.208;5.488;2023-02-22T11:16:20;15.90;94.90
25440;DHT22;13365;52.208;5.488;2023-02-22T11:18:49;15.70;94.90
25440;DHT22;13365;52.208;5.488;2023-02-22T11:21:23;15.80;95.00
25440;DHT22;13365;52.208;5.488;2023-02-22T11:23:49;15.90;95.10
25440;DHT22;13365;52.208;5.488;2023-02-22T11:26:25;15.90;95.50
25440;DHT22;13365;52.208;5.488;2023-02-22T11:28:51;15.90;95.40
25440;DHT22;13365;52.208;5.488;2023-02-22T11:31:22;16.10;95.10
25440;DHT22;13365;52.208;5.488;2023-02-22T11:33:55;16.10;95.00
25440;DHT22;13365;52.208;5.488;2023-02-22T11:38:56;16.10;94.80
25440;DHT22;13365;52.208;5.488;2023-02-22T11:41:29;16.10;95.00
25440;DHT22;13365;52.208;5.488;2023-02-22T11:46:39;16.20;95.50
25440;DHT22;13365;52.208;5.488;2023-02-22T11:49:10;16.20;95.30
25440;DHT22;13365;52.208;5.488;2023-02-22T11:51:46;16.10;94.80
25440;DHT22;13365;52.208;5.488;2023-02-22T11:54:28;16.10;95.10
25440;DHT22;13365;52.208;5.488;2023-02-22T12:14:20;15.90;94.70
25440;DHT22;13365;52.208;5.488;2023-02-22T12:16:57;15.80;94.60
25440;DHT22;13365;52.208;5.488;2023-02-22T12:19:32;15.70;94.90
25440;DHT22;13365;52.208;5.488;2023-02-22T12:22:46;15.90;94.70
25440;DHT22;13365;52.208;5.488;2023-02-22T12:24:59;15.80;94.50
25440;DHT22;13365;52.208;5.488;2023-02-22T12:27:34;15.90;95.10
25440;DHT22;13365;52.208;5.488;2023-02-22T12:30:09;15.90;95.00
25440;DHT22;13365;52.208;5.488;2023-02-22T12:32:44;16.00;95.00
25440;DHT22;13365;52.208;5.488;2023-02-22T12:35:24;16.10;95.00
25440;DHT22;13365;52.208;5.488;2023-02-22T12:43:33;16.30;94.50
25440;DHT22;13365;52.208;5.488;2023-02-22T12:46:17;16.30;94.30
25440;DHT22;13365;52.208;5.488;2023-02-22T12:48:52;16.20;94.60
25440;DHT22;13365;52.208;5.488;2023-02-22T13:00:04;16.50;94.30
25440;DHT22;13365;52.208;5.488;2023-02-22T13:05:16;16.80;94.10
25440;DHT22;13365;52.208;5.488;2023-02-22T13:11:12;16.80;93.20
25440;DHT22;13365;52.208;5.488;2023-02-22T13:16:34;16.70;92.90
25440;DHT22;13365;52.208;5.488;2023-02-22T13:22:18;16.70;92.60
25440;DHT22;13365;52.208;5.488;2023-02-22T13:27:27;16.70;93.80
25440;DHT22;13365;52.208;5.488;2023-02-22T13:29:58;16.70;93.60
25440;DHT22;13365;52.208;5.488;2023-02-22T13:46:47;16.70;93.10
25440;DHT22;13365;52.208;5.488;2023-02-22T13:52:16;16.90;92.70
25440;DHT22;13365;52.208;5.488;2023-02-22T13:55:00;16.90;92.90
25440;DHT22;13365;52.208;5.488;2023-02-22T13:57:47;16.90;93.00
25440;DHT22;13365;52.208;5.488;2023-02-22T14:05:45;17.20;93.00
25440;DHT22;13365;52.208;5.488;2023-02-22T14:13:49;17.00;92.90
25440;DHT22;13365;52.208;5.488;2023-02-22T14:16:26;16.90;93.00
25440;DHT22;13365;52.208;5.488;2023-02-22T14:21:57;16.80;93.10
25440;DHT22;13365;52.208;5.488;2023-02-22T14:24:39;16.60;93.20
25440;DHT22;13365;52.208;5.488;2023-02-22T14:27:07;16.70;93.20
25440;DHT22;13365;52.208;5.488;2023-02-22T14:29:33;16.60;93.60
25440;DHT22;13365;52.208;5.488;2023-02-22T14:32:02;16.80;93.50
25440;DHT22;13365;52.208;5.488;2023-02-22T14:34:52;16.80;93.40
25440;DHT22;13365;52.208;5.488;2023-02-22T14:37:35;16.90;93.30
25440;DHT22;13365;52.208;5.488;2023-02-22T14:42:47;16.80;93.20
25440;DHT22;13365;52.208;5.488;2023-02-22T14:45:27;16.60;93.30
25440;DHT22;13365;52.208;5.488;2023-02-22T14:48:08;16.40;93.60
25440;DHT22;13365;52.208;5.488;2023-02-22T14:50:44;16.30;94.00
25440;DHT22;13365;52.208;5.488;2023-02-22T14:53:17;16.20;94.30
25440;DHT22;13365;52.208;5.488;2023-02-22T14:56:00;16.10;94.40
25440;DHT22;13365;52.208;5.488;2023-02-22T14:58:37;16.00;94.80
25440;DHT22;13365;52.208;5.488;2023-02-22T15:01:25;16.00;94.90
25440;DHT22;13365;52.208;5.488;2023-02-22T15:03:51;15.90;94.90
25440;DHT22;13365;52.208;5.488;2023-02-22T15:06:25;15.90;94.80
25440;DHT22;13365;52.208;5.488;2023-02-22T15:09:13;16.00;94.90
25440;DHT22;13365;52.208;5.488;2023-02-22T15:14:33;16.20;94.80
25440;DHT22;13365;52.208;5.488;2023-02-22T15:17:11;16.10;94.50
25440;DHT22;13365;52.208;5.488;2023-02-22T15:19:39;16.10;94.70
25440;DHT22;13365;52.208;5.488;2023-02-22T15:22:33;16.00;94.60
25440;DHT22;13365;52.208;5.488;2023-02-22T15:25:07;15.90;94.60
25440;DHT22;13365;52.208;5.488;2023-02-22T15:27:34;15.80;94.80
25440;DHT22;13365;52.208;5.488;2023-02-22T15:30:14;15.90;94.80
25440;DHT22;13365;52.208;5.488;2023-02-22T15:32:40;15.90;94.80
25440;DHT22;13365;52.208;5.488;2023-02-22T15:35:18;15.90;94.80
25440;DHT22;13365;52.208;5.488;2023-02-22T15:37:45;16.00;94.80
25440;DHT22;13365;52.208;5.488;2023-02-22T15:40:17;16.00;94.80
25440;DHT22;13365;52.208;5.488;2023-02-22T15:42:48;16.00;94.70
25440;DHT22;13365;52.208;5.488;2023-02-22T15:45:19;16.10;94.70
25440;DHT22;13365;52.208;5.488;2023-02-22T15:47:47;16.10;94.90
25440;DHT22;13365;52.208;5.488;2023-02-22T15:50:17;16.10;94.70
25440;DHT22;13365;52.208;5.488;2023-02-22T15:53:22;16.20;94.80
25440;DHT22;13365;52.208;5.488;2023-02-22T15:55:55;16.30;94.70
25440;DHT22;13365;52.208;5.488;2023-02-22T15:58:23;16.40;94.50
25440;DHT22;13365;52.208;5.488;2023-02-22T16:01:11;16.40;94.50
25440;DHT22;13365;52.208;5.488;2023-02-22T16:04:04;16.40;94.40
25440;DHT22;13365;52.208;5.488;2023-02-22T16:06:37;16.40;94.40
25440;DHT22;13365;52.208;5.488;2023-02-22T16:09:11;16.30;94.30
25440;DHT22;13365;52.208;5.488;2023-02-22T16:11:40;16.40;94.30
25440;DHT22;13365;52.208;5.488;2023-02-22T16:19:54;16.40;94.10
25440;DHT22;13365;52.208;5.488;2023-02-22T16:22:27;16.40;94.10
25440;DHT22;13365;52.208;5.488;2023-02-22T16:24:53;16.40;94.00
25440;DHT22;13365;52.208;5.488;2023-02-22T16:27:40;16.40;93.80
25440;DHT22;13365;52.208;5.488;2023-02-22T16:32:47;16.40;94.00
25440;DHT22;13365;52.208;5.488;2023-02-22T16:35:13;16.30;93.90
25440;DHT22;13365;52.208;5.488;2023-02-22T16:37:56;16.10;94.10
25440;DHT22;13365;52.208;5.488;2023-02-22T16:43:06;15.90;94.20
25440;DHT22;13365;52.208;5.488;2023-02-22T16:45:32;15.80;94.50
25440;DHT22;13365;52.208;5.488;2023-02-22T16:47:59;15.80;94.50
25440;DHT22;13365;52.208;5.488;2023-02-22T16:50:25;15.50;94.60
25440;DHT22;13365;52.208;5.488;2023-02-22T16:52:52;15.50;94.80
25440;DHT22;13365;52.208;5.488;2023-02-22T16:55:20;15.50;94.70
25440;DHT22;13365;52.208;5.488;2023-02-22T16:57:47;15.40;94.70
25440;DHT22;13365;52.208;5.488;2023-02-22T17:00:20;15.40;95.00
25440;DHT22;13365;52.208;5.488;2023-02-22T17:02:46;15.60;94.90
25440;DHT22;13365;52.208;5.488;2023-02-22T17:05:14;15.50;94.80
25440;DHT22;13365;52.208;5.488;2023-02-22T17:07:40;15.50;94.80
25440;DHT22;13365;52.208;5.488;2023-02-22T17:10:13;15.40;94.80
25440;DHT22;13365;52.208;5.488;2023-02-22T17:12:39;15.40;94.80
25440;DHT22;13365;52.208;5.488;2023-02-22T17:15:44;15.30;94.80
25440;DHT22;13365;52.208;5.488;2023-02-22T17:18:11;15.30;95.00
25440;DHT22;13365;52.208;5.488;2023-02-22T17:20:38;15.20;95.00
25440;DHT22;13365;52.208;5.488;2023-02-22T17:23:08;15.20;95.00
25440;DHT22;13365;52.208;5.488;2023-02-22T17:25:40;15.20;95.00
25440;DHT22;13365;52.208;5.488;2023-02-22T17:28:07;15.00;94.90
25440;DHT22;13365;52.208;5.488;2023-02-22T17:30:32;15.00;95.00
25440;DHT22;13365;52.208;5.488;2023-02-22T17:33:01;14.90;95.20
25440;DHT22;13365;52.208;5.488;2023-02-22T17:35:33;14.90;95.40
25440;DHT22;13365;52.208;5.488;2023-02-22T17:38:00;15.00;95.70
25440;DHT22;13365;52.208;5.488;2023-02-22T17:40:33;15.00;95.50
25440;DHT22;13365;52.208;5.488;2023-02-22T17:42:59;15.00;95.50
25440;DHT22;13365;52.208;5.488;2023-02-22T17:45:26;14.70;96.10
25440;DHT22;13365;52.208;5.488;2023-02-22T17:47:52;14.30;96.90
25440;DHT22;13365;52.208;5.488;2023-02-22T17:50:19;14.10;97.40
25440;DHT22;13365;52.208;5.488;2023-02-22T17:52:45;14.00;98.20
25440;DHT22;13365;52.208;5.488;2023-02-22T17:55:11;14.10;98.10
25440;DHT22;13365;52.208;5.488;2023-02-22T17:57:37;13.90;98.20
25440;DHT22;13365;52.208;5.488;2023-02-22T18:00:05;13.70;98.50
25440;DHT22;13365;52.208;5.488;2023-02-22T18:02:41;13.60;99.30
25440;DHT22;13365;52.208;5.488;2023-02-22T18:05:09;13.80;98.90
25440;DHT22;13365;52.208;5.488;2023-02-22T18:07:35;14.00;99.10
25440;DHT22;13365;52.208;5.488;2023-02-22T18:10:01;14.10;98.80
25440;DHT22;13365;52.208;5.488;2023-02-22T18:12:32;14.00;98.40
25440;DHT22;13365;52.208;5.488;2023-02-22T18:14:58;14.00;98.20
25440;DHT22;13365;52.208;5.488;2023-02-22T18:17:23;14.40;98.50
25440;DHT22;13365;52.208;5.488;2023-02-22T18:19:49;14.40;97.90
25440;DHT22;13365;52.208;5.488;2023-02-22T18:22:14;14.60;97.80
25440;DHT22;13365;52.208;5.488;2023-02-22T18:24:40;14.70;97.40